Baggs, Wyoming
Current Conditions -  °F | °C
As of 8:15 AM on Wednesday 22 Oct 2014 (Local Time) from KDWX Reporting Station
Overcast Overcast  
Wind Chill: 42°   Ceiling: 2000
Heat Index: 42°   Visibility: 10mi
Dew Point: 40°   Wind: 3mph
Humidity: 93%   Direction: 90°E
Pressure: 30.21"   Gusts: NA
Location:  41.04°N, 107.66°W
Report Text: KDWX 221415Z AUTO 09003KT 10SM OVC020 06/05 A3021 RMK AO2 T00560046
Loading
Personal Weather Stations






























Interactive Weather Map
Tropical Storm Tracking
New forecast layout! Learn more

10-Day Weather Forecast

Advertisements
Track Severe Weather on mobile